createdAt,value
2022-12-20T00:01:12.171Z,88.70
2022-12-20T00:03:19.624Z,88.40
2022-12-20T00:05:26.623Z,89.40
2022-12-20T00:07:33.653Z,89.40
2022-12-20T00:09:40.643Z,89.10
2022-12-20T00:11:47.710Z,88.90
2022-12-20T00:13:54.636Z,88.40
2022-12-20T00:16:10.567Z,88.30
2022-12-20T00:18:17.346Z,88.40
2022-12-20T00:20:24.674Z,88.50
2022-12-20T00:22:31.653Z,88.40
2022-12-20T00:24:38.782Z,88.30
2022-12-20T00:26:45.964Z,88.50
2022-12-20T00:28:53.206Z,88.10
2022-12-20T00:31:00.444Z,88.00
2022-12-20T00:33:08.943Z,87.90
2022-12-20T00:35:16.072Z,87.30
2022-12-20T00:37:22.797Z,87.10
2022-12-20T00:39:29.922Z,86.70
2022-12-20T00:41:37.360Z,86.20
2022-12-20T00:43:45.072Z,85.60
2022-12-20T00:45:51.724Z,84.80
2022-12-20T00:47:58.804Z,83.70
2022-12-20T00:50:08.089Z,83.20
2022-12-20T00:52:15.369Z,83.10
2022-12-20T00:54:22.195Z,82.70
2022-12-20T00:56:29.219Z,82.20
2022-12-20T00:58:37.169Z,81.10
2022-12-20T01:00:47.815Z,81.10
2022-12-20T01:02:57.755Z,80.80
2022-12-20T01:05:07.261Z,81.20
2022-12-20T01:07:14.095Z,81.30
2022-12-20T01:09:21.269Z,81.60
2022-12-20T01:11:29.733Z,80.30
2022-12-20T01:13:38.650Z,80.40
2022-12-20T01:15:45.677Z,79.80
2022-12-20T01:17:52.836Z,78.80
2022-12-20T01:19:59.581Z,78.60
2022-12-20T01:22:08.298Z,78.10
2022-12-20T01:24:15.330Z,78.20
2022-12-20T01:26:24.864Z,77.40
2022-12-20T01:28:32.505Z,76.40
2022-12-20T01:30:43.118Z,76.20
2022-12-20T01:32:49.953Z,75.90
2022-12-20T01:34:58.362Z,75.60
2022-12-20T01:37:05.739Z,75.60
2022-12-20T01:39:16.550Z,75.80
2022-12-20T01:41:25.474Z,75.90
2022-12-20T01:43:51.281Z,74.50
2022-12-20T01:45:58.587Z,74.10
2022-12-20T01:48:05.504Z,72.30
2022-12-20T01:50:13.197Z,72.20
2022-12-20T01:52:26.171Z,71.60
2022-12-20T01:54:37.957Z,72.00
2022-12-20T01:56:47.756Z,72.20
2022-12-20T01:58:57.949Z,72.30
2022-12-20T02:01:05.142Z,70.30
2022-12-20T02:03:15.013Z,70.30
2022-12-20T02:05:24.735Z,70.80
2022-12-20T02:07:37.274Z,69.40
2022-12-20T02:09:44.438Z,70.50
2022-12-20T02:12:08.019Z,70.60
2022-12-20T02:14:23.706Z,69.90
2022-12-20T02:16:33.382Z,69.40
2022-12-20T02:18:46.159Z,69.70
2022-12-20T02:21:20.980Z,69.70
2022-12-20T02:23:52.641Z,69.90
2022-12-20T02:26:13.336Z,69.60
2022-12-20T02:28:42.287Z,69.30
2022-12-20T02:30:57.655Z,68.70
2022-12-20T02:33:07.346Z,69.20
2022-12-20T02:35:18.515Z,68.40
2022-12-20T02:37:25.695Z,68.80
2022-12-20T02:39:35.334Z,68.80
2022-12-20T02:41:46.821Z,68.40
2022-12-20T02:44:15.403Z,68.70
2022-12-20T02:46:25.683Z,66.10
2022-12-20T02:48:36.213Z,67.20
2022-12-20T02:50:47.390Z,67.20
2022-12-20T02:52:55.082Z,65.20
2022-12-20T02:55:03.241Z,64.80
2022-12-20T02:57:19.436Z,64.90
2022-12-20T02:59:28.863Z,64.50
2022-12-20T03:01:42.182Z,64.40
2022-12-20T03:03:49.308Z,63.90
2022-12-20T03:05:58.039Z,63.30
2022-12-20T03:08:05.118Z,63.30
2022-12-20T03:10:13.680Z,62.70
2022-12-20T03:12:20.757Z,62.80
2022-12-20T03:14:28.553Z,62.80
2022-12-20T03:16:39.411Z,62.00
2022-12-20T03:18:47.425Z,60.70
2022-12-20T03:20:54.709Z,61.60
2022-12-20T03:23:01.584Z,60.60
2022-12-20T03:25:10.198Z,60.90
2022-12-20T03:27:17.741Z,60.50
2022-12-20T03:29:24.979Z,59.90
2022-12-20T03:31:32.119Z,60.40
2022-12-20T03:33:40.970Z,60.10
2022-12-20T03:35:48.203Z,60.00
2022-12-20T03:37:58.206Z,60.00
2022-12-20T03:40:05.388Z,59.40
2022-12-20T03:42:13.284Z,58.30
2022-12-20T03:44:20.406Z,57.40
2022-12-20T03:46:29.012Z,57.80
2022-12-20T03:48:36.311Z,57.70
2022-12-20T03:50:45.951Z,57.50
2022-12-20T03:52:52.925Z,57.30
2022-12-20T03:55:00.319Z,57.40
2022-12-20T03:57:15.635Z,57.10
2022-12-20T03:59:24.711Z,55.70
2022-12-20T04:01:34.256Z,55.80
2022-12-20T04:03:41.406Z,56.40
2022-12-20T04:05:50.559Z,55.00
2022-12-20T04:07:57.942Z,55.40
2022-12-20T04:10:04.818Z,55.30
2022-12-20T04:12:12.563Z,55.00
2022-12-20T04:14:19.640Z,54.30
2022-12-20T04:16:28.113Z,54.40
2022-12-20T04:18:35.796Z,54.20
2022-12-20T04:20:44.002Z,54.60
2022-12-20T04:23:01.885Z,54.10
2022-12-20T04:25:09.736Z,53.10
2022-12-20T04:27:19.114Z,53.30
2022-12-20T04:29:26.605Z,52.90
2022-12-20T04:31:33.757Z,53.10
2022-12-20T04:33:41.068Z,52.70
2022-12-20T04:35:48.662Z,52.50
2022-12-20T04:37:55.992Z,53.00
2022-12-20T04:40:04.866Z,51.70
2022-12-20T04:42:22.186Z,51.00
2022-12-20T04:44:31.007Z,51.10
2022-12-20T04:46:38.283Z,51.70
2022-12-20T04:48:59.062Z,51.10
2022-12-20T04:51:08.166Z,50.80
2022-12-20T04:53:32.141Z,51.30
2022-12-20T04:55:43.315Z,52.20
2022-12-20T04:57:50.242Z,51.80
2022-12-20T04:59:57.123Z,50.90
2022-12-20T05:02:04.148Z,49.90
2022-12-20T05:04:37.036Z,51.10
2022-12-20T05:06:45.436Z,49.70
2022-12-20T05:08:53.746Z,50.90
2022-12-20T05:11:02.980Z,50.10
2022-12-20T05:13:11.598Z,50.50
2022-12-20T05:15:22.153Z,50.20
2022-12-20T05:17:29.235Z,50.50
2022-12-20T05:19:36.362Z,50.10
2022-12-20T05:22:00.183Z,50.00
2022-12-20T05:24:24.930Z,50.00
2022-12-20T05:26:47.262Z,49.90
2022-12-20T05:28:56.697Z,49.90
2022-12-20T05:31:05.605Z,48.70
2022-12-20T05:33:15.005Z,49.80
2022-12-20T05:35:23.886Z,49.90
2022-12-20T05:37:37.567Z,49.30
2022-12-20T05:39:52.887Z,48.50
2022-12-20T05:42:04.314Z,49.50
2022-12-20T05:44:11.238Z,48.60
2022-12-20T05:46:22.102Z,49.10
2022-12-20T05:48:36.616Z,47.90
2022-12-20T05:50:45.226Z,48.10
2022-12-20T05:53:12.263Z,47.10
2022-12-20T05:55:26.058Z,48.40
2022-12-20T05:57:35.082Z,48.70
2022-12-20T05:59:42.314Z,48.20
2022-12-20T06:01:56.338Z,48.40
2022-12-20T06:04:04.339Z,48.70
2022-12-20T06:06:14.749Z,48.10
2022-12-20T06:08:26.019Z,46.70
2022-12-20T06:10:35.691Z,47.10
2022-12-20T06:12:44.708Z,47.30
2022-12-20T06:14:52.195Z,46.90
2022-12-20T06:16:59.944Z,47.40
2022-12-20T06:19:06.968Z,47.90
2022-12-20T06:21:14.355Z,46.80
2022-12-20T06:23:21.288Z,46.60
2022-12-20T06:25:37.980Z,46.50
2022-12-20T06:27:46.805Z,47.60
2022-12-20T06:29:55.991Z,47.80
2022-12-20T06:32:07.844Z,45.80
2022-12-20T06:34:15.211Z,46.20
2022-12-20T06:36:22.448Z,47.20
2022-12-20T06:38:31.020Z,46.40
2022-12-20T06:40:38.034Z,46.20
2022-12-20T06:42:47.421Z,46.40
2022-12-20T06:44:54.669Z,47.00
2022-12-20T06:47:01.696Z,46.80
2022-12-20T06:49:09.066Z,46.20
2022-12-20T06:51:16.657Z,46.50
2022-12-20T06:53:23.374Z,45.20
2022-12-20T06:55:30.818Z,45.70
2022-12-20T06:57:37.700Z,46.60
2022-12-20T06:59:46.405Z,46.00
2022-12-20T07:01:53.438Z,46.70
2022-12-20T07:04:00.822Z,46.10
2022-12-20T07:06:08.026Z,45.50
2022-12-20T07:08:15.185Z,45.90
2022-12-20T07:10:22.422Z,46.30
2022-12-20T07:12:29.853Z,45.70
2022-12-20T07:14:36.830Z,45.60
2022-12-20T07:16:47.479Z,45.10
2022-12-20T07:18:55.142Z,45.40
2022-12-20T07:21:04.162Z,45.70
2022-12-20T07:23:11.445Z,46.00
2022-12-20T07:25:18.600Z,45.40
2022-12-20T07:27:25.910Z,44.60
2022-12-20T07:29:33.248Z,45.30
2022-12-20T07:31:40.475Z,45.50
2022-12-20T07:33:49.148Z,45.60
2022-12-20T07:36:02.841Z,45.90
2022-12-20T07:38:09.604Z,45.70
2022-12-20T07:40:17.517Z,45.00
2022-12-20T07:42:27.761Z,45.70
2022-12-20T07:44:42.818Z,45.70
2022-12-20T07:46:50.463Z,46.00
2022-12-20T07:48:59.548Z,45.80
2022-12-20T07:51:11.479Z,46.00
2022-12-20T07:53:19.027Z,45.30
2022-12-20T07:55:26.136Z,45.40
2022-12-20T07:57:39.331Z,44.80
2022-12-20T07:59:49.014Z,45.20
2022-12-20T08:02:02.539Z,44.60
2022-12-20T08:04:15.877Z,45.20
2022-12-20T08:06:23.154Z,44.80
2022-12-20T08:08:30.335Z,45.00
2022-12-20T08:10:37.936Z,45.30
2022-12-20T08:12:46.546Z,44.80
2022-12-20T08:14:57.104Z,44.10
2022-12-20T08:17:03.963Z,45.00
2022-12-20T08:19:12.640Z,44.80
2022-12-20T08:21:20.140Z,45.50
2022-12-20T08:23:27.727Z,45.00
2022-12-20T08:25:40.932Z,45.10
2022-12-20T08:27:48.640Z,45.10
2022-12-20T08:29:55.676Z,45.70
2022-12-20T08:32:02.952Z,46.20
2022-12-20T08:34:12.080Z,45.80
2022-12-20T08:36:19.312Z,46.10
2022-12-20T08:38:26.036Z,46.20
2022-12-20T08:40:33.063Z,46.90
2022-12-20T08:42:39.887Z,46.60
2022-12-20T08:44:46.912Z,47.50
2022-12-20T08:46:55.170Z,47.70
2022-12-20T08:49:02.142Z,47.30
2022-12-20T08:51:13.088Z,46.30
2022-12-20T08:53:20.195Z,46.70
2022-12-20T08:55:29.093Z,47.00
2022-12-20T08:57:36.658Z,46.70
2022-12-20T08:59:43.847Z,47.20
2022-12-20T09:01:51.651Z,47.00
2022-12-20T09:03:58.560Z,46.80
2022-12-20T09:06:07.702Z,47.10
2022-12-20T09:08:17.435Z,46.40
2022-12-20T09:10:24.303Z,46.30
2022-12-20T09:12:31.284Z,46.90
2022-12-20T09:14:38.159Z,47.40
2022-12-20T09:16:45.439Z,47.80
2022-12-20T09:18:55.648Z,48.20
2022-12-20T09:21:08.405Z,48.10
2022-12-20T09:23:17.096Z,47.60
2022-12-20T09:25:24.313Z,46.30
2022-12-20T09:27:31.285Z,46.50
2022-12-20T09:29:38.418Z,46.90
2022-12-20T09:31:45.342Z,46.70
2022-12-20T09:33:52.824Z,46.50
2022-12-20T09:36:00.136Z,46.10
2022-12-20T09:38:07.347Z,46.40
2022-12-20T09:40:23.592Z,46.60
2022-12-20T09:42:33.078Z,47.10
2022-12-20T09:44:43.993Z,47.10
2022-12-20T09:46:56.482Z,46.40
2022-12-20T09:49:03.630Z,46.40
2022-12-20T09:51:19.492Z,46.40
2022-12-20T09:53:38.676Z,47.10
2022-12-20T09:55:53.691Z,47.20
2022-12-20T09:58:11.332Z,46.70
2022-12-20T10:00:21.338Z,47.10
2022-12-20T10:02:57.209Z,47.20
2022-12-20T10:04:58.034Z,46.70
2022-12-20T10:07:21.465Z,47.30
2022-12-20T10:09:53.801Z,47.40
2022-12-20T10:12:10.850Z,46.90
2022-12-20T10:14:32.570Z,47.80
2022-12-20T10:16:45.999Z,47.30
2022-12-20T10:19:01.362Z,47.90
2022-12-20T10:21:14.661Z,48.30
2022-12-20T10:23:33.537Z,48.90
2022-12-20T10:25:41.351Z,49.60
2022-12-20T10:27:52.068Z,50.50
2022-12-20T10:29:59.296Z,51.10
2022-12-20T10:32:13.751Z,51.10
2022-12-20T10:34:20.727Z,51.60
2022-12-20T10:36:30.333Z,52.40
2022-12-20T10:38:48.959Z,53.70
2022-12-20T10:41:22.778Z,55.40
2022-12-20T10:43:39.627Z,56.60
2022-12-20T10:45:48.960Z,57.60
2022-12-20T10:48:02.089Z,57.00
2022-12-20T10:50:19.245Z,58.40
2022-12-20T10:52:26.087Z,61.10
2022-12-20T10:54:38.376Z,61.20
2022-12-20T10:56:44.684Z,61.90
2022-12-20T10:59:01.565Z,64.70
2022-12-20T11:01:15.323Z,64.40
2022-12-20T11:03:24.425Z,64.10
2022-12-20T11:05:31.378Z,64.30
2022-12-20T11:07:38.664Z,64.80
2022-12-20T11:09:59.705Z,65.00
2022-12-20T11:12:10.337Z,66.00
2022-12-20T11:14:23.318Z,65.80
2022-12-20T11:16:38.120Z,65.80
2022-12-20T11:18:55.019Z,66.10
2022-12-20T11:21:18.564Z,66.30
2022-12-20T11:23:36.007Z,66.90
2022-12-20T11:26:02.320Z,66.70
2022-12-20T11:28:23.612Z,65.90
2022-12-20T11:30:41.009Z,66.50
2022-12-20T11:33:11.601Z,67.50
2022-12-20T11:35:22.728Z,68.00
2022-12-20T11:37:30.777Z,68.30
2022-12-20T11:39:46.562Z,68.70
2022-12-20T11:42:02.499Z,68.10
2022-12-20T11:44:25.891Z,67.80
2022-12-20T11:46:46.317Z,68.80
2022-12-20T11:49:06.640Z,68.70
2022-12-20T11:51:26.635Z,69.00
2022-12-20T11:53:39.632Z,69.20
2022-12-20T11:55:50.268Z,69.60
2022-12-20T11:58:18.762Z,69.70
2022-12-20T12:00:27.808Z,70.10
2022-12-20T12:02:41.343Z,70.20
2022-12-20T12:04:53.537Z,70.70
2022-12-20T12:07:05.228Z,71.30
2022-12-20T12:09:23.890Z,71.20
2022-12-20T12:14:03.482Z,71.30
2022-12-20T12:16:14.402Z,71.10
2022-12-20T12:18:26.604Z,70.80
2022-12-20T12:20:36.704Z,71.10
2022-12-20T12:22:45.470Z,72.40
2022-12-20T12:24:55.987Z,71.40
2022-12-20T12:27:03.724Z,71.90
2022-12-20T12:29:16.039Z,72.50
2022-12-20T12:31:29.789Z,72.30
2022-12-20T12:33:43.906Z,72.70
2022-12-20T12:36:18.946Z,72.40
2022-12-20T12:39:02.443Z,73.10
2022-12-20T12:41:38.017Z,73.40
2022-12-20T12:43:53.804Z,73.70
2022-12-20T12:46:03.369Z,73.50
2022-12-20T12:48:17.125Z,73.70
2022-12-20T12:50:30.361Z,74.00
2022-12-20T12:52:49.004Z,73.50
2022-12-20T12:54:56.029Z,73.60
2022-12-20T12:57:05.976Z,74.00
2022-12-20T12:59:44.799Z,74.20
2022-12-20T13:01:54.883Z,74.30
2022-12-20T13:04:31.825Z,74.50
2022-12-20T13:07:22.790Z,74.90
2022-12-20T13:09:45.588Z,75.60
2022-12-20T13:12:00.392Z,74.30
2022-12-20T13:14:52.583Z,74.00
2022-12-20T13:17:35.384Z,73.40
2022-12-20T13:19:43.706Z,72.10
2022-12-20T13:21:51.500Z,73.40
2022-12-20T13:24:43.477Z,74.40
2022-12-20T13:26:56.861Z,73.30
2022-12-20T13:29:27.306Z,74.00
2022-12-20T13:31:39.591Z,74.70
2022-12-20T13:33:48.561Z,75.00
2022-12-20T13:36:03.784Z,75.20
2022-12-20T13:38:52.801Z,75.20
2022-12-20T13:41:02.494Z,74.80
2022-12-20T13:43:19.454Z,75.30
2022-12-20T13:45:27.755Z,76.00
2022-12-20T13:47:40.976Z,76.20
2022-12-20T13:49:48.467Z,75.70
2022-12-20T13:52:21.863Z,75.60
2022-12-20T13:54:29.095Z,74.90
2022-12-20T13:56:41.657Z,74.90
2022-12-20T13:58:51.263Z,75.10
2022-12-20T14:01:06.948Z,75.20
2022-12-20T14:03:26.636Z,75.70
2022-12-20T14:05:39.821Z,77.20
2022-12-20T14:07:49.869Z,77.30
2022-12-20T14:10:01.963Z,76.90
2022-12-20T14:12:18.017Z,76.80
2022-12-20T14:14:31.995Z,76.90
2022-12-20T14:16:40.017Z,77.20
2022-12-20T14:18:52.503Z,76.80
2022-12-20T14:21:02.397Z,76.90
2022-12-20T14:23:13.879Z,77.40
2022-12-20T14:25:25.774Z,77.20
2022-12-20T14:27:36.587Z,77.70
2022-12-20T14:29:48.121Z,78.30
2022-12-20T14:31:55.156Z,78.80
2022-12-20T14:34:11.546Z,79.10
2022-12-20T14:36:22.878Z,79.50
2022-12-20T14:38:34.413Z,79.80
2022-12-20T14:40:50.437Z,80.00
2022-12-20T14:43:01.173Z,80.10
2022-12-20T14:45:27.609Z,80.40
2022-12-20T14:47:35.133Z,80.40
2022-12-20T14:49:43.549Z,80.20
2022-12-20T14:51:51.151Z,80.10
2022-12-20T14:54:00.070Z,80.10
2022-12-20T14:56:07.293Z,80.20
2022-12-20T14:58:28.556Z,80.40
2022-12-20T15:00:37.992Z,80.70
2022-12-20T15:02:49.383Z,81.00
2022-12-20T15:04:56.704Z,81.00
2022-12-20T15:07:04.244Z,81.20
2022-12-20T15:09:11.324Z,81.30
2022-12-20T15:11:24.379Z,81.50
2022-12-20T15:13:35.081Z,81.60
2022-12-20T15:15:44.067Z,81.40
2022-12-20T15:17:51.467Z,81.40
2022-12-20T15:19:58.549Z,81.40
2022-12-20T15:22:05.626Z,81.60
2022-12-20T15:24:16.290Z,81.80
2022-12-20T15:26:24.860Z,82.30
2022-12-20T15:28:31.831Z,82.10
2022-12-20T15:30:39.779Z,82.90
2022-12-20T15:32:55.531Z,82.80
2022-12-20T15:35:03.362Z,82.70
2022-12-20T15:37:14.218Z,82.60
2022-12-20T15:39:25.919Z,82.50
2022-12-20T15:41:34.655Z,82.90
2022-12-20T15:43:43.081Z,83.70
2022-12-20T15:45:54.168Z,84.30
2022-12-20T15:48:03.149Z,84.40
2022-12-20T15:50:11.447Z,84.50
2022-12-20T15:52:22.992Z,84.30
2022-12-20T15:54:31.802Z,85.10
2022-12-20T15:56:38.932Z,85.90
2022-12-20T15:58:48.469Z,86.40
2022-12-20T16:00:59.518Z,86.70
2022-12-20T16:03:08.670Z,86.50
2022-12-20T16:05:17.284Z,86.90
2022-12-20T16:07:24.266Z,87.30
2022-12-20T16:09:31.544Z,87.40
2022-12-20T16:11:38.779Z,87.50
2022-12-20T16:13:46.176Z,87.50
2022-12-20T16:15:53.391Z,87.20
2022-12-20T16:18:00.539Z,87.00
2022-12-20T16:20:10.377Z,86.60
2022-12-20T16:22:20.133Z,85.90
2022-12-20T16:24:26.985Z,85.50
2022-12-20T16:26:34.372Z,85.50
2022-12-20T16:28:41.246Z,84.80
2022-12-20T16:30:53.179Z,84.40
2022-12-20T16:33:01.401Z,84.10
2022-12-20T16:35:15.797Z,84.50
2022-12-20T16:37:22.876Z,84.80
2022-12-20T16:39:30.015Z,85.20
2022-12-20T16:41:37.292Z,85.00
2022-12-20T16:43:44.576Z,85.00
2022-12-20T16:45:51.602Z,84.90
2022-12-20T16:47:59.093Z,84.40
2022-12-20T16:50:06.016Z,84.70
2022-12-20T16:52:21.593Z,84.90
2022-12-20T16:54:28.575Z,85.00
2022-12-20T16:56:36.163Z,85.40
2022-12-20T16:59:17.211Z,85.80
2022-12-20T17:01:16.755Z,85.50
2022-12-20T17:03:24.102Z,85.00
2022-12-20T17:05:33.623Z,85.00
2022-12-20T17:07:42.286Z,85.00
2022-12-20T17:09:49.393Z,84.60
2022-12-20T17:11:56.445Z,84.30
2022-12-20T17:14:08.795Z,83.50
2022-12-20T17:16:19.929Z,83.20
2022-12-20T17:18:27.042Z,84.10
2022-12-20T17:20:36.997Z,83.80
2022-12-20T17:22:46.428Z,83.80
2022-12-20T17:24:53.405Z,82.90
2022-12-20T17:27:01.268Z,82.40
2022-12-20T17:29:08.737Z,81.90
2022-12-20T17:31:29.194Z,82.00
2022-12-20T17:33:36.218Z,82.20
2022-12-20T17:35:43.190Z,82.10
2022-12-20T17:37:53.219Z,82.40
2022-12-20T17:40:00.251Z,82.50
2022-12-20T17:42:10.110Z,82.10
2022-12-20T17:44:22.458Z,82.60
2022-12-20T17:46:29.837Z,83.10
2022-12-20T17:48:43.443Z,83.40
2022-12-20T17:50:50.544Z,83.40
2022-12-20T17:52:59.482Z,83.60
2022-12-20T17:55:06.609Z,83.50
2022-12-20T17:57:17.485Z,83.00
2022-12-20T17:59:26.873Z,82.50
2022-12-20T18:01:35.195Z,83.00
2022-12-20T18:04:07.084Z,83.40
2022-12-20T18:06:10.520Z,83.50
2022-12-20T18:08:19.344Z,83.80
2022-12-20T18:10:26.718Z,83.80
2022-12-20T18:12:37.415Z,84.00
2022-12-20T18:14:44.677Z,83.80
2022-12-20T18:16:51.756Z,83.90
2022-12-20T18:18:59.551Z,84.10
2022-12-20T18:21:07.198Z,83.50
2022-12-20T18:23:14.226Z,82.80
2022-12-20T18:25:22.989Z,82.50
2022-12-20T18:27:31.060Z,82.60
2022-12-20T18:29:37.958Z,83.10
2022-12-20T18:31:45.393Z,84.10
2022-12-20T18:33:57.501Z,84.10
2022-12-20T18:36:06.927Z,83.70
2022-12-20T18:38:14.309Z,83.70
2022-12-20T18:40:26.267Z,84.10
2022-12-20T18:42:33.254Z,84.30
2022-12-20T18:44:40.544Z,84.00
2022-12-20T18:46:47.505Z,83.70
2022-12-20T18:48:55.612Z,83.80
2022-12-20T18:51:07.754Z,83.60
2022-12-20T18:53:14.884Z,83.50
2022-12-20T18:55:23.553Z,83.80
2022-12-20T18:57:30.684Z,84.30
2022-12-20T18:59:39.100Z,85.00
2022-12-20T19:01:46.882Z,85.40
2022-12-20T19:03:54.535Z,85.80
2022-12-20T19:06:02.747Z,86.00
2022-12-20T19:08:09.815Z,86.30
2022-12-20T19:10:16.997Z,85.80
2022-12-20T19:12:25.614Z,85.60
2022-12-20T19:14:32.998Z,85.90
2022-12-20T19:16:40.938Z,85.80
2022-12-20T19:18:48.648Z,85.70
2022-12-20T19:20:55.617Z,85.90
2022-12-20T19:23:02.758Z,85.80
2022-12-20T19:25:10.343Z,85.80
2022-12-20T19:27:17.623Z,85.70
2022-12-20T19:29:26.418Z,85.70
2022-12-20T19:31:34.977Z,85.60
2022-12-20T19:33:42.908Z,85.60
2022-12-20T19:35:57.301Z,85.20
2022-12-20T19:38:04.233Z,84.90
2022-12-20T19:40:12.446Z,84.80
2022-12-20T19:42:24.163Z,85.50
2022-12-20T19:44:33.567Z,85.40
2022-12-20T19:46:40.574Z,85.60
2022-12-20T19:48:47.770Z,85.50
2022-12-20T19:50:54.693Z,84.90
2022-12-20T19:53:01.925Z,84.70
2022-12-20T19:55:09.570Z,85.30
2022-12-20T19:57:17.113Z,85.40
2022-12-20T19:59:24.188Z,85.50
2022-12-20T20:01:33.359Z,85.30
2022-12-20T20:03:40.612Z,85.10
2022-12-20T20:05:47.866Z,85.00
2022-12-20T20:07:55.188Z,84.90
2022-12-20T20:10:02.502Z,84.70
2022-12-20T20:12:09.939Z,84.90
2022-12-20T20:14:17.277Z,84.80
2022-12-20T20:16:25.023Z,84.50
2022-12-20T20:18:36.722Z,84.70
2022-12-20T20:20:44.561Z,84.60
2022-12-20T20:22:51.887Z,84.60
2022-12-20T20:24:59.842Z,84.80
2022-12-20T20:27:07.174Z,84.70
2022-12-20T20:29:14.045Z,84.90
2022-12-20T20:31:22.361Z,85.20
2022-12-20T20:33:29.476Z,85.00
2022-12-20T20:35:38.511Z,85.00
2022-12-20T20:37:46.087Z,85.50
2022-12-20T20:39:53.290Z,85.60
2022-12-20T20:42:00.213Z,86.20
2022-12-20T20:44:07.645Z,85.90
2022-12-20T20:46:16.345Z,86.00
2022-12-20T20:48:23.499Z,86.10
2022-12-20T20:50:31.032Z,86.40
2022-12-20T20:52:39.955Z,86.20
2022-12-20T20:54:46.900Z,86.10
2022-12-20T20:56:54.114Z,86.20
2022-12-20T20:59:05.246Z,85.90
2022-12-20T21:01:15.499Z,86.30
2022-12-20T21:03:22.574Z,86.10
2022-12-20T21:07:58.590Z,85.60
2022-12-20T21:10:05.809Z,85.90
2022-12-20T21:12:13.095Z,85.90
2022-12-20T21:14:43.386Z,86.00
2022-12-20T21:16:47.684Z,85.90
2022-12-20T21:18:55.715Z,85.80
2022-12-20T21:21:02.993Z,86.40
2022-12-20T21:26:00.182Z,85.60
2022-12-20T21:28:07.637Z,86.50
2022-12-20T21:30:15.128Z,86.30
2022-12-20T21:32:22.304Z,86.80
2022-12-20T21:34:29.140Z,87.50
2022-12-20T21:36:36.878Z,87.40
2022-12-20T21:38:45.654Z,87.40
2022-12-20T21:40:52.614Z,87.70
2022-12-20T21:42:59.442Z,87.50
2022-12-20T21:45:06.673Z,87.30
2022-12-20T21:47:13.754Z,87.50
2022-12-20T21:49:20.831Z,87.40
2022-12-20T21:51:28.632Z,87.30
2022-12-20T21:53:36.429Z,87.70
2022-12-20T21:55:44.841Z,87.70
2022-12-20T21:57:51.964Z,87.50
2022-12-20T21:59:58.684Z,87.10
2022-12-20T22:02:06.012Z,87.20
2022-12-20T22:04:14.891Z,87.50
2022-12-20T22:06:21.966Z,87.60
2022-12-20T22:08:29.972Z,87.80
2022-12-20T22:10:37.000Z,87.80
2022-12-20T22:12:45.461Z,87.60
2022-12-20T22:14:52.695Z,87.80
2022-12-20T22:16:59.577Z,87.90
2022-12-20T22:19:06.857Z,88.10
2022-12-20T22:21:15.778Z,88.20
2022-12-20T22:23:22.903Z,88.60
2022-12-20T22:25:29.727Z,89.40
2022-12-20T22:27:36.806Z,89.70
2022-12-20T22:29:45.576Z,89.60
2022-12-20T22:31:53.590Z,89.50
2022-12-20T22:34:01.017Z,89.40
2022-12-20T22:36:08.758Z,89.20
2022-12-20T22:38:16.248Z,88.80
2022-12-20T22:40:24.143Z,88.60
2022-12-20T22:42:31.074Z,88.80
2022-12-20T22:44:38.151Z,89.00
2022-12-20T22:46:46.557Z,89.60
2022-12-20T22:48:53.551Z,90.10
2022-12-20T22:51:03.061Z,89.80
2022-12-20T22:53:10.209Z,89.50
2022-12-20T22:55:17.027Z,89.50
2022-12-20T22:57:24.162Z,89.70
2022-12-20T22:59:30.928Z,89.50
2022-12-20T23:01:38.129Z,89.70
2022-12-20T23:03:47.293Z,90.00
2022-12-20T23:05:58.877Z,90.10
2022-12-20T23:08:05.966Z,89.90
2022-12-20T23:10:34.368Z,89.90
2022-12-20T23:13:12.283Z,89.50
2022-12-20T23:15:35.848Z,89.40
2022-12-20T23:17:42.623Z,89.10
2022-12-20T23:20:16.418Z,89.50
2022-12-20T23:22:43.647Z,89.20
2022-12-20T23:24:51.221Z,88.80
2022-12-20T23:26:58.591Z,88.80
2022-12-20T23:29:06.656Z,88.80
2022-12-20T23:31:14.617Z,88.70
2022-12-20T23:33:21.532Z,88.80
2022-12-20T23:35:30.354Z,88.80
2022-12-20T23:37:37.124Z,89.20
2022-12-20T23:39:44.308Z,89.50
2022-12-20T23:41:51.080Z,89.60
2022-12-20T23:43:58.059Z,89.30
2022-12-20T23:46:07.323Z,89.10
2022-12-20T23:48:14.620Z,89.30
2022-12-20T23:50:21.598Z,89.40
2022-12-20T23:52:30.431Z,89.50
2022-12-20T23:54:37.192Z,89.50
2022-12-20T23:56:44.369Z,89.50
2022-12-20T23:58:55.543Z,89.50
